sensor_id;sensor_type;location;lat;lon;timestamp;P1;durP1;ratioP1;P2;durP2;ratioP2
13026;SDS011;6580;42.680;23.324;2023-07-30T00:01:57;4.15;;;2.83;;
13026;SDS011;6580;42.680;23.324;2023-07-30T00:04:43;3.35;;;3.05;;
13026;SDS011;6580;42.680;23.324;2023-07-30T00:07:31;4.07;;;2.85;;
13026;SDS011;6580;42.680;23.324;2023-07-30T00:10:17;3.88;;;3.50;;
13026;SDS011;6580;42.680;23.324;2023-07-30T00:13:02;3.70;;;3.10;;
13026;SDS011;6580;42.680;23.324;2023-07-30T00:15:48;4.03;;;3.33;;
13026;SDS011;6580;42.680;23.324;2023-07-30T00:18:34;3.13;;;2.92;;
13026;SDS011;6580;42.680;23.324;2023-07-30T00:21:20;3.65;;;3.00;;
13026;SDS011;6580;42.680;23.324;2023-07-30T00:24:06;5.78;;;3.35;;
13026;SDS011;6580;42.680;23.324;2023-07-30T00:26:53;3.38;;;3.08;;
13026;SDS011;6580;42.680;23.324;2023-07-30T00:29:39;3.97;;;3.38;;
13026;SDS011;6580;42.680;23.324;2023-07-30T00:32:24;4.13;;;3.25;;
13026;SDS011;6580;42.680;23.324;2023-07-30T00:35:10;5.80;;;3.00;;
13026;SDS011;6580;42.680;23.324;2023-07-30T00:37:55;4.55;;;3.38;;
13026;SDS011;6580;42.680;23.324;2023-07-30T00:40:45;3.40;;;3.10;;
13026;SDS011;6580;42.680;23.324;2023-07-30T00:43:32;3.13;;;2.83;;
13026;SDS011;6580;42.680;23.324;2023-07-30T00:46:17;4.45;;;3.50;;
13026;SDS011;6580;42.680;23.324;2023-07-30T00:49:03;3.75;;;3.45;;
13026;SDS011;6580;42.680;23.324;2023-07-30T00:51:50;3.47;;;3.17;;
13026;SDS011;6580;42.680;23.324;2023-07-30T00:54:35;4.05;;;3.65;;
13026;SDS011;6580;42.680;23.324;2023-07-30T00:57:22;3.90;;;3.53;;
13026;SDS011;6580;42.680;23.324;2023-07-30T01:00:08;3.15;;;2.85;;
13026;SDS011;6580;42.680;23.324;2023-07-30T01:02:58;3.33;;;2.88;;
13026;SDS011;6580;42.680;23.324;2023-07-30T01:05:44;3.17;;;2.90;;
13026;SDS011;6580;42.680;23.324;2023-07-30T01:08:29;3.72;;;3.42;;
13026;SDS011;6580;42.680;23.324;2023-07-30T01:11:15;4.25;;;3.17;;
13026;SDS011;6580;42.680;23.324;2023-07-30T01:14:04;3.33;;;2.75;;
13026;SDS011;6580;42.680;23.324;2023-07-30T01:16:51;3.95;;;3.65;;
13026;SDS011;6580;42.680;23.324;2023-07-30T01:19:37;3.38;;;3.08;;
13026;SDS011;6580;42.680;23.324;2023-07-30T01:22:26;4.15;;;2.78;;
13026;SDS011;6580;42.680;23.324;2023-07-30T01:25:12;3.78;;;3.42;;
13026;SDS011;6580;42.680;23.324;2023-07-30T01:27:59;3.90;;;3.30;;
13026;SDS011;6580;42.680;23.324;2023-07-30T01:30:48;3.05;;;2.85;;
13026;SDS011;6580;42.680;23.324;2023-07-30T01:33:35;3.95;;;2.70;;
13026;SDS011;6580;42.680;23.324;2023-07-30T01:36:23;3.40;;;3.10;;
13026;SDS011;6580;42.680;23.324;2023-07-30T01:39:10;3.15;;;2.88;;
13026;SDS011;6580;42.680;23.324;2023-07-30T01:41:56;3.17;;;2.83;;
13026;SDS011;6580;42.680;23.324;2023-07-30T01:44:43;3.50;;;3.20;;
13026;SDS011;6580;42.680;23.324;2023-07-30T01:47:29;3.53;;;3.15;;
13026;SDS011;6580;42.680;23.324;2023-07-30T01:50:15;4.70;;;3.50;;
13026;SDS011;6580;42.680;23.324;2023-07-30T01:53:01;3.30;;;2.92;;
13026;SDS011;6580;42.680;23.324;2023-07-30T01:55:49;3.30;;;3.03;;
13026;SDS011;6580;42.680;23.324;2023-07-30T01:58:34;3.03;;;2.83;;
13026;SDS011;6580;42.680;23.324;2023-07-30T02:01:27;4.13;;;2.95;;
13026;SDS011;6580;42.680;23.324;2023-07-30T02:04:14;3.13;;;2.92;;
13026;SDS011;6580;42.680;23.324;2023-07-30T02:07:00;4.28;;;3.30;;
13026;SDS011;6580;42.680;23.324;2023-07-30T02:09:45;3.25;;;3.05;;
13026;SDS011;6580;42.680;23.324;2023-07-30T02:12:32;3.30;;;3.00;;
13026;SDS011;6580;42.680;23.324;2023-07-30T02:15:17;3.47;;;3.20;;
13026;SDS011;6580;42.680;23.324;2023-07-30T02:18:03;5.45;;;3.50;;
13026;SDS011;6580;42.680;23.324;2023-07-30T02:20:48;4.35;;;3.30;;
13026;SDS011;6580;42.680;23.324;2023-07-30T02:23:34;3.47;;;3.17;;
13026;SDS011;6580;42.680;23.324;2023-07-30T02:26:20;3.58;;;3.28;;
13026;SDS011;6580;42.680;23.324;2023-07-30T02:29:06;3.60;;;3.30;;
13026;SDS011;6580;42.680;23.324;2023-07-30T02:31:52;3.97;;;3.17;;
13026;SDS011;6580;42.680;23.324;2023-07-30T02:34:37;3.35;;;3.10;;
13026;SDS011;6580;42.680;23.324;2023-07-30T02:37:23;5.00;;;3.13;;
13026;SDS011;6580;42.680;23.324;2023-07-30T02:40:09;3.58;;;3.28;;
13026;SDS011;6580;42.680;23.324;2023-07-30T02:42:55;3.38;;;3.10;;
13026;SDS011;6580;42.680;23.324;2023-07-30T02:45:44;3.95;;;3.47;;
13026;SDS011;6580;42.680;23.324;2023-07-30T02:48:34;3.15;;;2.95;;
13026;SDS011;6580;42.680;23.324;2023-07-30T02:51:21;3.83;;;3.08;;
13026;SDS011;6580;42.680;23.324;2023-07-30T02:54:07;3.28;;;3.00;;
13026;SDS011;6580;42.680;23.324;2023-07-30T02:56:53;3.28;;;3.08;;
13026;SDS011;6580;42.680;23.324;2023-07-30T02:59:39;3.60;;;3.30;;
13026;SDS011;6580;42.680;23.324;2023-07-30T03:02:27;4.13;;;3.28;;
13026;SDS011;6580;42.680;23.324;2023-07-30T03:05:13;3.25;;;2.97;;
13026;SDS011;6580;42.680;23.324;2023-07-30T03:07:58;3.33;;;3.03;;
13026;SDS011;6580;42.680;23.324;2023-07-30T03:10:44;3.50;;;3.20;;
13026;SDS011;6580;42.680;23.324;2023-07-30T03:13:30;4.20;;;3.20;;
13026;SDS011;6580;42.680;23.324;2023-07-30T03:16:15;3.58;;;3.28;;
13026;SDS011;6580;42.680;23.324;2023-07-30T03:19:02;3.88;;;3.58;;
13026;SDS011;6580;42.680;23.324;2023-07-30T03:21:48;3.80;;;3.50;;
13026;SDS011;6580;42.680;23.324;2023-07-30T03:24:34;4.28;;;3.30;;
13026;SDS011;6580;42.680;23.324;2023-07-30T03:27:21;3.45;;;3.15;;
13026;SDS011;6580;42.680;23.324;2023-07-30T03:30:08;3.38;;;3.00;;
13026;SDS011;6580;42.680;23.324;2023-07-30T03:32:54;4.43;;;3.22;;
13026;SDS011;6580;42.680;23.324;2023-07-30T03:35:41;4.10;;;3.55;;
13026;SDS011;6580;42.680;23.324;2023-07-30T03:38:30;3.25;;;2.95;;
13026;SDS011;6580;42.680;23.324;2023-07-30T03:41:15;3.60;;;3.30;;
13026;SDS011;6580;42.680;23.324;2023-07-30T03:44:01;3.38;;;3.08;;
13026;SDS011;6580;42.680;23.324;2023-07-30T03:46:47;3.55;;;3.25;;
13026;SDS011;6580;42.680;23.324;2023-07-30T03:49:32;3.80;;;3.40;;
13026;SDS011;6580;42.680;23.324;2023-07-30T03:52:19;3.40;;;3.10;;
13026;SDS011;6580;42.680;23.324;2023-07-30T03:55:04;3.25;;;3.05;;
13026;SDS011;6580;42.680;23.324;2023-07-30T03:57:53;3.50;;;3.17;;
13026;SDS011;6580;42.680;23.324;2023-07-30T04:00:38;2.95;;;2.75;;
13026;SDS011;6580;42.680;23.324;2023-07-30T04:03:24;3.25;;;2.95;;
13026;SDS011;6580;42.680;23.324;2023-07-30T04:06:11;3.97;;;3.22;;
13026;SDS011;6580;42.680;23.324;2023-07-30T04:09:00;3.92;;;3.50;;
13026;SDS011;6580;42.680;23.324;2023-07-30T04:11:46;3.70;;;3.38;;
13026;SDS011;6580;42.680;23.324;2023-07-30T04:14:31;3.97;;;3.03;;
13026;SDS011;6580;42.680;23.324;2023-07-30T04:17:17;3.65;;;3.17;;
13026;SDS011;6580;42.680;23.324;2023-07-30T04:20:02;3.53;;;3.22;;
13026;SDS011;6580;42.680;23.324;2023-07-30T04:22:49;3.55;;;3.25;;
13026;SDS011;6580;42.680;23.324;2023-07-30T04:25:39;3.75;;;3.28;;
13026;SDS011;6580;42.680;23.324;2023-07-30T04:28:27;4.03;;;3.72;;
13026;SDS011;6580;42.680;23.324;2023-07-30T04:31:14;3.75;;;3.28;;
13026;SDS011;6580;42.680;23.324;2023-07-30T04:33:59;3.95;;;3.63;;
13026;SDS011;6580;42.680;23.324;2023-07-30T04:36:45;4.50;;;3.38;;
13026;SDS011;6580;42.680;23.324;2023-07-30T04:39:32;4.25;;;3.45;;
13026;SDS011;6580;42.680;23.324;2023-07-30T04:42:19;3.72;;;3.42;;
13026;SDS011;6580;42.680;23.324;2023-07-30T04:45:07;4.65;;;3.30;;
13026;SDS011;6580;42.680;23.324;2023-07-30T04:47:54;4.10;;;3.70;;
13026;SDS011;6580;42.680;23.324;2023-07-30T04:50:40;3.58;;;3.28;;
13026;SDS011;6580;42.680;23.324;2023-07-30T04:53:29;3.90;;;3.60;;
13026;SDS011;6580;42.680;23.324;2023-07-30T04:56:15;3.92;;;3.60;;
13026;SDS011;6580;42.680;23.324;2023-07-30T04:59:02;3.60;;;3.30;;
13026;SDS011;6580;42.680;23.324;2023-07-30T05:01:47;3.85;;;3.55;;
13026;SDS011;6580;42.680;23.324;2023-07-30T05:04:33;3.97;;;3.67;;
13026;SDS011;6580;42.680;23.324;2023-07-30T05:07:18;3.75;;;3.45;;
13026;SDS011;6580;42.680;23.324;2023-07-30T05:10:04;3.13;;;2.92;;
13026;SDS011;6580;42.680;23.324;2023-07-30T05:12:54;4.28;;;3.88;;
13026;SDS011;6580;42.680;23.324;2023-07-30T05:15:40;3.90;;;3.60;;
13026;SDS011;6580;42.680;23.324;2023-07-30T05:18:26;3.63;;;3.33;;
13026;SDS011;6580;42.680;23.324;2023-07-30T05:21:12;3.60;;;3.30;;
13026;SDS011;6580;42.680;23.324;2023-07-30T05:23:57;3.47;;;3.17;;
13026;SDS011;6580;42.680;23.324;2023-07-30T05:26:43;3.35;;;3.15;;
13026;SDS011;6580;42.680;23.324;2023-07-30T05:29:30;3.78;;;3.47;;
13026;SDS011;6580;42.680;23.324;2023-07-30T05:32:17;3.42;;;3.13;;
13026;SDS011;6580;42.680;23.324;2023-07-30T05:35:02;3.67;;;3.38;;
13026;SDS011;6580;42.680;23.324;2023-07-30T05:37:48;3.90;;;3.03;;
13026;SDS011;6580;42.680;23.324;2023-07-30T05:40:34;3.33;;;3.13;;
13026;SDS011;6580;42.680;23.324;2023-07-30T05:43:20;3.30;;;3.10;;
13026;SDS011;6580;42.680;23.324;2023-07-30T05:46:05;3.38;;;3.13;;
13026;SDS011;6580;42.680;23.324;2023-07-30T05:48:53;3.30;;;3.00;;
13026;SDS011;6580;42.680;23.324;2023-07-30T05:51:39;3.50;;;2.85;;
13026;SDS011;6580;42.680;23.324;2023-07-30T05:54:24;3.00;;;2.80;;
13026;SDS011;6580;42.680;23.324;2023-07-30T05:57:10;3.10;;;2.90;;
13026;SDS011;6580;42.680;23.324;2023-07-30T05:59:55;3.33;;;2.95;;
13026;SDS011;6580;42.680;23.324;2023-07-30T06:02:41;3.10;;;2.90;;
13026;SDS011;6580;42.680;23.324;2023-07-30T06:05:31;3.60;;;3.30;;
13026;SDS011;6580;42.680;23.324;2023-07-30T06:08:16;2.90;;;2.70;;
13026;SDS011;6580;42.680;23.324;2023-07-30T06:11:02;3.28;;;2.97;;
13026;SDS011;6580;42.680;23.324;2023-07-30T06:13:48;3.40;;;3.10;;
13026;SDS011;6580;42.680;23.324;2023-07-30T06:16:34;3.70;;;3.40;;
13026;SDS011;6580;42.680;23.324;2023-07-30T06:19:19;3.70;;;3.00;;
13026;SDS011;6580;42.680;23.324;2023-07-30T06:22:06;3.55;;;3.25;;
13026;SDS011;6580;42.680;23.324;2023-07-30T06:24:52;4.22;;;3.30;;
13026;SDS011;6580;42.680;23.324;2023-07-30T06:27:37;3.60;;;3.30;;
13026;SDS011;6580;42.680;23.324;2023-07-30T06:30:22;3.45;;;3.15;;
13026;SDS011;6580;42.680;23.324;2023-07-30T06:33:08;3.17;;;2.88;;
13026;SDS011;6580;42.680;23.324;2023-07-30T06:35:54;3.65;;;3.35;;
13026;SDS011;6580;42.680;23.324;2023-07-30T06:38:41;3.60;;;3.30;;
13026;SDS011;6580;42.680;23.324;2023-07-30T06:41:27;3.92;;;3.55;;
13026;SDS011;6580;42.680;23.324;2023-07-30T06:44:12;3.63;;;3.33;;
13026;SDS011;6580;42.680;23.324;2023-07-30T06:46:58;3.95;;;2.95;;
13026;SDS011;6580;42.680;23.324;2023-07-30T06:49:43;4.32;;;3.42;;
13026;SDS011;6580;42.680;23.324;2023-07-30T06:52:29;3.90;;;3.50;;
13026;SDS011;6580;42.680;23.324;2023-07-30T06:55:17;3.97;;;3.67;;
13026;SDS011;6580;42.680;23.324;2023-07-30T06:58:02;3.90;;;3.40;;
13026;SDS011;6580;42.680;23.324;2023-07-30T07:00:48;3.67;;;3.38;;
13026;SDS011;6580;42.680;23.324;2023-07-30T07:03:35;3.90;;;3.50;;
13026;SDS011;6580;42.680;23.324;2023-07-30T07:06:20;3.72;;;3.38;;
13026;SDS011;6580;42.680;23.324;2023-07-30T07:09:06;3.60;;;3.30;;
13026;SDS011;6580;42.680;23.324;2023-07-30T07:11:53;3.33;;;3.03;;
13026;SDS011;6580;42.680;23.324;2023-07-30T07:14:38;3.40;;;3.10;;
13026;SDS011;6580;42.680;23.324;2023-07-30T07:17:24;3.30;;;3.00;;
13026;SDS011;6580;42.680;23.324;2023-07-30T07:20:11;3.55;;;3.25;;
13026;SDS011;6580;42.680;23.324;2023-07-30T07:22:57;3.40;;;3.10;;
13026;SDS011;6580;42.680;23.324;2023-07-30T07:25:43;3.35;;;2.65;;
13026;SDS011;6580;42.680;23.324;2023-07-30T07:28:33;3.55;;;3.25;;
13026;SDS011;6580;42.680;23.324;2023-07-30T07:31:18;3.20;;;2.90;;
13026;SDS011;6580;42.680;23.324;2023-07-30T07:34:04;3.17;;;2.88;;
13026;SDS011;6580;42.680;23.324;2023-07-30T07:36:50;2.80;;;2.60;;
13026;SDS011;6580;42.680;23.324;2023-07-30T07:39:36;3.30;;;3.00;;
13026;SDS011;6580;42.680;23.324;2023-07-30T07:42:21;2.70;;;2.50;;
13026;SDS011;6580;42.680;23.324;2023-07-30T07:45:10;4.90;;;3.40;;
13026;SDS011;6580;42.680;23.324;2023-07-30T07:47:55;3.25;;;2.95;;
13026;SDS011;6580;42.680;23.324;2023-07-30T07:50:42;3.00;;;2.80;;
13026;SDS011;6580;42.680;23.324;2023-07-30T07:53:28;3.40;;;3.13;;
13026;SDS011;6580;42.680;23.324;2023-07-30T07:56:13;3.42;;;3.22;;
13026;SDS011;6580;42.680;23.324;2023-07-30T07:58:59;3.33;;;3.03;;
13026;SDS011;6580;42.680;23.324;2023-07-30T08:01:46;6.68;;;4.85;;
13026;SDS011;6580;42.680;23.324;2023-07-30T08:04:31;3.60;;;3.30;;
13026;SDS011;6580;42.680;23.324;2023-07-30T08:07:19;3.28;;;2.97;;
13026;SDS011;6580;42.680;23.324;2023-07-30T08:10:05;3.22;;;2.92;;
13026;SDS011;6580;42.680;23.324;2023-07-30T08:12:51;3.97;;;3.55;;
13026;SDS011;6580;42.680;23.324;2023-07-30T08:15:37;3.30;;;3.10;;
13026;SDS011;6580;42.680;23.324;2023-07-30T08:18:24;3.55;;;3.30;;
13026;SDS011;6580;42.680;23.324;2023-07-30T08:21:10;3.40;;;3.13;;
13026;SDS011;6580;42.680;23.324;2023-07-30T08:23:55;4.30;;;3.40;;
13026;SDS011;6580;42.680;23.324;2023-07-30T08:26:41;3.35;;;3.08;;
13026;SDS011;6580;42.680;23.324;2023-07-30T08:29:26;3.63;;;3.33;;
13026;SDS011;6580;42.680;23.324;2023-07-30T08:32:12;4.03;;;3.63;;
13026;SDS011;6580;42.680;23.324;2023-07-30T08:34:59;3.70;;;3.30;;
13026;SDS011;6580;42.680;23.324;2023-07-30T08:37:45;3.70;;;3.40;;
13026;SDS011;6580;42.680;23.324;2023-07-30T08:40:31;3.40;;;3.10;;
13026;SDS011;6580;42.680;23.324;2023-07-30T08:43:19;3.83;;;3.47;;
13026;SDS011;6580;42.680;23.324;2023-07-30T08:46:04;3.67;;;3.38;;
13026;SDS011;6580;42.680;23.324;2023-07-30T08:48:52;3.78;;;3.45;;
13026;SDS011;6580;42.680;23.324;2023-07-30T08:51:42;3.72;;;3.42;;
13026;SDS011;6580;42.680;23.324;2023-07-30T08:54:30;3.17;;;2.97;;
13026;SDS011;6580;42.680;23.324;2023-07-30T08:57:16;3.30;;;3.10;;
13026;SDS011;6580;42.680;23.324;2023-07-30T09:00:04;4.13;;;3.55;;
13026;SDS011;6580;42.680;23.324;2023-07-30T09:02:53;3.20;;;3.00;;
13026;SDS011;6580;42.680;23.324;2023-07-30T09:05:41;3.38;;;3.13;;
13026;SDS011;6580;42.680;23.324;2023-07-30T09:08:28;3.65;;;3.35;;
13026;SDS011;6580;42.680;23.324;2023-07-30T09:11:15;3.55;;;3.25;;
13026;SDS011;6580;42.680;23.324;2023-07-30T09:14:01;3.58;;;3.33;;
13026;SDS011;6580;42.680;23.324;2023-07-30T09:16:48;2.92;;;2.72;;
13026;SDS011;6580;42.680;23.324;2023-07-30T09:19:41;2.95;;;2.75;;
13026;SDS011;6580;42.680;23.324;2023-07-30T09:22:27;3.47;;;3.22;;
13026;SDS011;6580;42.680;23.324;2023-07-30T09:25:17;3.00;;;2.80;;
13026;SDS011;6580;42.680;23.324;2023-07-30T09:28:04;3.30;;;3.00;;
13026;SDS011;6580;42.680;23.324;2023-07-30T09:30:50;3.08;;;2.80;;
13026;SDS011;6580;42.680;23.324;2023-07-30T09:33:40;4.55;;;4.03;;
13026;SDS011;6580;42.680;23.324;2023-07-30T09:36:26;4.18;;;3.88;;
13026;SDS011;6580;42.680;23.324;2023-07-30T09:39:15;3.78;;;3.47;;
13026;SDS011;6580;42.680;23.324;2023-07-30T09:42:06;4.85;;;3.00;;
13026;SDS011;6580;42.680;23.324;2023-07-30T09:44:53;2.60;;;2.40;;
13026;SDS011;6580;42.680;23.324;2023-07-30T09:47:50;3.35;;;3.05;;
13026;SDS011;6580;42.680;23.324;2023-07-30T09:50:37;3.55;;;3.22;;
13026;SDS011;6580;42.680;23.324;2023-07-30T09:53:23;2.90;;;2.70;;
13026;SDS011;6580;42.680;23.324;2023-07-30T09:56:14;3.40;;;3.10;;
13026;SDS011;6580;42.680;23.324;2023-07-30T09:59:01;3.00;;;2.80;;
13026;SDS011;6580;42.680;23.324;2023-07-30T10:01:48;3.35;;;3.13;;
13026;SDS011;6580;42.680;23.324;2023-07-30T10:04:34;3.63;;;3.25;;
13026;SDS011;6580;42.680;23.324;2023-07-30T10:07:23;3.33;;;3.13;;
13026;SDS011;6580;42.680;23.324;2023-07-30T10:10:11;2.95;;;2.75;;
13026;SDS011;6580;42.680;23.324;2023-07-30T10:12:59;2.80;;;2.60;;
13026;SDS011;6580;42.680;23.324;2023-07-30T10:15:48;3.30;;;3.05;;
13026;SDS011;6580;42.680;23.324;2023-07-30T10:18:37;3.05;;;2.85;;
13026;SDS011;6580;42.680;23.324;2023-07-30T10:21:24;3.45;;;3.15;;
13026;SDS011;6580;42.680;23.324;2023-07-30T10:24:13;3.42;;;3.22;;
13026;SDS011;6580;42.680;23.324;2023-07-30T10:27:03;3.38;;;3.08;;
13026;SDS011;6580;42.680;23.324;2023-07-30T10:30:08;3.47;;;3.17;;
13026;SDS011;6580;42.680;23.324;2023-07-30T10:33:01;3.03;;;2.83;;
13026;SDS011;6580;42.680;23.324;2023-07-30T10:35:52;3.30;;;3.00;;
13026;SDS011;6580;42.680;23.324;2023-07-30T10:38:39;3.38;;;3.15;;
13026;SDS011;6580;42.680;23.324;2023-07-30T10:41:25;3.22;;;3.03;;
13026;SDS011;6580;42.680;23.324;2023-07-30T10:47:18;4.93;;;4.53;;
13026;SDS011;6580;42.680;23.324;2023-07-30T10:50:06;3.40;;;3.20;;
13026;SDS011;6580;42.680;23.324;2023-07-30T10:52:55;3.10;;;2.90;;
13026;SDS011;6580;42.680;23.324;2023-07-30T10:55:40;3.85;;;3.47;;
13026;SDS011;6580;42.680;23.324;2023-07-30T10:58:27;3.60;;;3.35;;
13026;SDS011;6580;42.680;23.324;2023-07-30T11:01:14;3.65;;;3.35;;
13026;SDS011;6580;42.680;23.324;2023-07-30T11:04:07;3.95;;;3.20;;
13026;SDS011;6580;42.680;23.324;2023-07-30T11:07:00;3.65;;;3.35;;
13026;SDS011;6580;42.680;23.324;2023-07-30T11:09:57;3.97;;;3.67;;
13026;SDS011;6580;42.680;23.324;2023-07-30T11:12:47;3.90;;;3.50;;
13026;SDS011;6580;42.680;23.324;2023-07-30T11:15:42;3.42;;;3.22;;
13026;SDS011;6580;42.680;23.324;2023-07-30T11:18:30;3.53;;;3.17;;
13026;SDS011;6580;42.680;23.324;2023-07-30T11:21:29;3.97;;;3.67;;
13026;SDS011;6580;42.680;23.324;2023-07-30T11:24:17;3.70;;;3.40;;
13026;SDS011;6580;42.680;23.324;2023-07-30T11:27:03;4.43;;;3.70;;
13026;SDS011;6580;42.680;23.324;2023-07-30T11:29:53;3.33;;;3.03;;
13026;SDS011;6580;42.680;23.324;2023-07-30T11:32:41;3.60;;;3.40;;
13026;SDS011;6580;42.680;23.324;2023-07-30T11:35:28;4.40;;;4.10;;
13026;SDS011;6580;42.680;23.324;2023-07-30T11:38:16;4.30;;;3.97;;
13026;SDS011;6580;42.680;23.324;2023-07-30T11:41:04;3.63;;;3.33;;
13026;SDS011;6580;42.680;23.324;2023-07-30T11:43:53;6.13;;;5.55;;
13026;SDS011;6580;42.680;23.324;2023-07-30T11:46:42;3.83;;;3.53;;
13026;SDS011;6580;42.680;23.324;2023-07-30T11:49:39;3.70;;;3.40;;
13026;SDS011;6580;42.680;23.324;2023-07-30T11:52:25;3.85;;;3.55;;
13026;SDS011;6580;42.680;23.324;2023-07-30T11:55:10;3.50;;;3.30;;
13026;SDS011;6580;42.680;23.324;2023-07-30T11:57:59;3.83;;;3.53;;
13026;SDS011;6580;42.680;23.324;2023-07-30T12:00:48;3.60;;;3.30;;
13026;SDS011;6580;42.680;23.324;2023-07-30T12:03:37;4.10;;;3.80;;
13026;SDS011;6580;42.680;23.324;2023-07-30T12:06:37;5.45;;;3.38;;
13026;SDS011;6580;42.680;23.324;2023-07-30T12:09:26;3.83;;;3.53;;
13026;SDS011;6580;42.680;23.324;2023-07-30T12:12:13;3.70;;;3.40;;
13026;SDS011;6580;42.680;23.324;2023-07-30T12:15:00;3.33;;;3.13;;
13026;SDS011;6580;42.680;23.324;2023-07-30T12:17:45;3.67;;;3.38;;
13026;SDS011;6580;42.680;23.324;2023-07-30T12:20:31;4.30;;;3.90;;
13026;SDS011;6580;42.680;23.324;2023-07-30T12:23:16;3.53;;;3.22;;
13026;SDS011;6580;42.680;23.324;2023-07-30T12:26:04;3.78;;;3.47;;
13026;SDS011;6580;42.680;23.324;2023-07-30T12:28:55;3.92;;;3.60;;
13026;SDS011;6580;42.680;23.324;2023-07-30T12:31:46;3.58;;;3.28;;
13026;SDS011;6580;42.680;23.324;2023-07-30T12:34:35;3.65;;;3.45;;
13026;SDS011;6580;42.680;23.324;2023-07-30T12:37:22;4.47;;;3.60;;
13026;SDS011;6580;42.680;23.324;2023-07-30T12:40:09;3.70;;;3.40;;
13026;SDS011;6580;42.680;23.324;2023-07-30T12:42:55;4.00;;;3.60;;
13026;SDS011;6580;42.680;23.324;2023-07-30T12:45:41;4.03;;;3.65;;
13026;SDS011;6580;42.680;23.324;2023-07-30T12:48:34;3.78;;;3.47;;
13026;SDS011;6580;42.680;23.324;2023-07-30T12:51:23;3.78;;;3.47;;
13026;SDS011;6580;42.680;23.324;2023-07-30T12:54:09;4.57;;;3.80;;
13026;SDS011;6580;42.680;23.324;2023-07-30T12:57:00;4.22;;;3.83;;
13026;SDS011;6580;42.680;23.324;2023-07-30T12:59:48;4.18;;;3.80;;
13026;SDS011;6580;42.680;23.324;2023-07-30T13:02:35;3.92;;;3.63;;
13026;SDS011;6580;42.680;23.324;2023-07-30T13:05:22;3.90;;;3.60;;
13026;SDS011;6580;42.680;23.324;2023-07-30T13:08:10;3.53;;;3.22;;
13026;SDS011;6580;42.680;23.324;2023-07-30T13:10:58;3.90;;;3.60;;
13026;SDS011;6580;42.680;23.324;2023-07-30T13:13:43;4.45;;;3.90;;
13026;SDS011;6580;42.680;23.324;2023-07-30T13:16:29;4.20;;;3.90;;
13026;SDS011;6580;42.680;23.324;2023-07-30T13:19:18;5.25;;;4.70;;
13026;SDS011;6580;42.680;23.324;2023-07-30T13:22:07;12.82;;;11.52;;
13026;SDS011;6580;42.680;23.324;2023-07-30T13:24:53;6.63;;;6.03;;
13026;SDS011;6580;42.680;23.324;2023-07-30T13:27:38;4.22;;;3.85;;
13026;SDS011;6580;42.680;23.324;2023-07-30T13:30:24;4.30;;;4.00;;
13026;SDS011;6580;42.680;23.324;2023-07-30T13:33:10;5.68;;;4.70;;
13026;SDS011;6580;42.680;23.324;2023-07-30T13:35:58;4.68;;;4.28;;
13026;SDS011;6580;42.680;23.324;2023-07-30T13:38:47;4.15;;;3.85;;
13026;SDS011;6580;42.680;23.324;2023-07-30T13:41:33;4.70;;;4.30;;
13026;SDS011;6580;42.680;23.324;2023-07-30T13:44:20;4.28;;;3.90;;
13026;SDS011;6580;42.680;23.324;2023-07-30T13:47:06;4.18;;;3.80;;
13026;SDS011;6580;42.680;23.324;2023-07-30T13:49:52;5.32;;;4.82;;
13026;SDS011;6580;42.680;23.324;2023-07-30T13:52:38;6.13;;;4.60;;
13026;SDS011;6580;42.680;23.324;2023-07-30T13:55:25;4.45;;;4.05;;
13026;SDS011;6580;42.680;23.324;2023-07-30T13:58:10;4.38;;;4.03;;
13026;SDS011;6580;42.680;23.324;2023-07-30T14:00:56;3.78;;;3.50;;
13026;SDS011;6580;42.680;23.324;2023-07-30T14:03:43;4.30;;;3.90;;
13026;SDS011;6580;42.680;23.324;2023-07-30T14:06:28;3.60;;;3.30;;
13026;SDS011;6580;42.680;23.324;2023-07-30T14:09:14;4.20;;;3.90;;
13026;SDS011;6580;42.680;23.324;2023-07-30T14:12:01;4.57;;;4.20;;
13026;SDS011;6580;42.680;23.324;2023-07-30T14:14:48;5.70;;;4.55;;
13026;SDS011;6580;42.680;23.324;2023-07-30T14:17:33;4.20;;;3.90;;
13026;SDS011;6580;42.680;23.324;2023-07-30T14:20:19;4.40;;;4.00;;
13026;SDS011;6580;42.680;23.324;2023-07-30T14:23:04;4.20;;;3.80;;
13026;SDS011;6580;42.680;23.324;2023-07-30T14:25:53;4.53;;;4.22;;
13026;SDS011;6580;42.680;23.324;2023-07-30T14:28:43;4.80;;;4.28;;
13026;SDS011;6580;42.680;23.324;2023-07-30T14:31:30;4.32;;;4.00;;
13026;SDS011;6580;42.680;23.324;2023-07-30T14:34:16;5.28;;;4.78;;
13026;SDS011;6580;42.680;23.324;2023-07-30T14:37:02;5.53;;;3.95;;
13026;SDS011;6580;42.680;23.324;2023-07-30T14:39:47;4.53;;;4.03;;
13026;SDS011;6580;42.680;23.324;2023-07-30T14:42:33;4.75;;;4.35;;
13026;SDS011;6580;42.680;23.324;2023-07-30T14:45:21;5.18;;;4.78;;
13026;SDS011;6580;42.680;23.324;2023-07-30T14:48:07;4.88;;;4.10;;
13026;SDS011;6580;42.680;23.324;2023-07-30T14:50:52;4.65;;;4.13;;
13026;SDS011;6580;42.680;23.324;2023-07-30T14:53:41;4.07;;;3.78;;
13026;SDS011;6580;42.680;23.324;2023-07-30T14:56:27;4.25;;;3.95;;
13026;SDS011;6580;42.680;23.324;2023-07-30T14:59:13;4.13;;;3.83;;
13026;SDS011;6580;42.680;23.324;2023-07-30T15:02:01;4.38;;;4.00;;
13026;SDS011;6580;42.680;23.324;2023-07-30T15:04:47;4.35;;;3.95;;
13026;SDS011;6580;42.680;23.324;2023-07-30T15:07:33;4.60;;;4.20;;
13026;SDS011;6580;42.680;23.324;2023-07-30T15:10:21;4.65;;;4.25;;
13026;SDS011;6580;42.680;23.324;2023-07-30T15:13:09;5.13;;;4.70;;
13026;SDS011;6580;42.680;23.324;2023-07-30T15:15:55;5.20;;;4.00;;
13026;SDS011;6580;42.680;23.324;2023-07-30T15:18:42;9.85;;;8.93;;
13026;SDS011;6580;42.680;23.324;2023-07-30T15:21:28;9.35;;;8.45;;
13026;SDS011;6580;42.680;23.324;2023-07-30T15:24:15;7.07;;;6.38;;
13026;SDS011;6580;42.680;23.324;2023-07-30T15:27:00;5.03;;;4.30;;
13026;SDS011;6580;42.680;23.324;2023-07-30T15:29:45;5.10;;;4.68;;
13026;SDS011;6580;42.680;23.324;2023-07-30T15:32:31;6.65;;;4.93;;
13026;SDS011;6580;42.680;23.324;2023-07-30T15:35:18;7.30;;;6.57;;
13026;SDS011;6580;42.680;23.324;2023-07-30T15:38:04;7.13;;;6.50;;
13026;SDS011;6580;42.680;23.324;2023-07-30T15:40:51;5.60;;;4.70;;
13026;SDS011;6580;42.680;23.324;2023-07-30T15:43:39;4.93;;;4.43;;
13026;SDS011;6580;42.680;23.324;2023-07-30T15:46:24;4.70;;;4.30;;
13026;SDS011;6580;42.680;23.324;2023-07-30T15:49:10;5.18;;;4.60;;
13026;SDS011;6580;42.680;23.324;2023-07-30T15:51:57;4.90;;;4.43;;
13026;SDS011;6580;42.680;23.324;2023-07-30T15:54:46;5.13;;;4.20;;
13026;SDS011;6580;42.680;23.324;2023-07-30T15:57:32;5.30;;;4.82;;
13026;SDS011;6580;42.680;23.324;2023-07-30T16:00:18;5.20;;;4.70;;
13026;SDS011;6580;42.680;23.324;2023-07-30T16:03:05;4.38;;;4.07;;
13026;SDS011;6580;42.680;23.324;2023-07-30T16:05:51;5.72;;;4.82;;
13026;SDS011;6580;42.680;23.324;2023-07-30T16:08:38;4.72;;;4.32;;
13026;SDS011;6580;42.680;23.324;2023-07-30T16:11:24;5.10;;;4.60;;
13026;SDS011;6580;42.680;23.324;2023-07-30T16:14:11;5.80;;;4.90;;
13026;SDS011;6580;42.680;23.324;2023-07-30T16:16:59;5.07;;;4.68;;
13026;SDS011;6580;42.680;23.324;2023-07-30T16:19:45;4.43;;;4.03;;
13026;SDS011;6580;42.680;23.324;2023-07-30T16:22:31;5.00;;;4.50;;
13026;SDS011;6580;42.680;23.324;2023-07-30T16:25:18;4.65;;;4.20;;
13026;SDS011;6580;42.680;23.324;2023-07-30T16:28:03;6.55;;;4.53;;
13026;SDS011;6580;42.680;23.324;2023-07-30T16:30:49;4.20;;;3.80;;
13026;SDS011;6580;42.680;23.324;2023-07-30T16:33:35;5.70;;;5.10;;
13026;SDS011;6580;42.680;23.324;2023-07-30T16:36:21;5.72;;;5.13;;
13026;SDS011;6580;42.680;23.324;2023-07-30T16:39:07;5.53;;;4.63;;
13026;SDS011;6580;42.680;23.324;2023-07-30T16:41:55;5.03;;;4.63;;
13026;SDS011;6580;42.680;23.324;2023-07-30T16:44:41;4.97;;;4.10;;
13026;SDS011;6580;42.680;23.324;2023-07-30T16:47:26;6.30;;;5.70;;
13026;SDS011;6580;42.680;23.324;2023-07-30T16:50:12;6.85;;;5.82;;